Time,TemperatureF,DewpointF,PressureIn,WindDirection,WindDirectionDegrees,WindSpeedMPH,WindSpeedGustMPH,Humidity,HourlyPrecipIn,Conditions,Clouds,dailyrainin,SoftwareType,DateUTC
2013-05-01 00:00:00,47.8,34.6,27.78,WNW,283,4.0,11.0,60,0.00,,---,0.08,VWS V14.01,2013-05-01 05:00:00,
2013-05-01 00:05:00,47.6,34.8,27.78,West,263,4.0,11.0,61,0.00,,---,0.00,VWS V14.01,2013-05-01 05:05:00,
2013-05-01 00:10:00,47.4,34.6,27.78,West,261,4.0,4.0,61,0.00,,---,0.00,VWS V14.01,2013-05-01 05:10:00,
2013-05-01 00:16:00,47.1,34.8,27.80,West,272,4.0,6.0,62,0.00,,---,0.00,VWS V14.01,2013-05-01 05:16:00,
2013-05-01 00:21:00,46.9,34.6,27.80,WNW,287,4.0,6.0,62,0.00,,---,0.00,VWS V14.01,2013-05-01 05:21:00,
2013-05-01 00:26:00,46.9,35.0,27.80,West,274,8.0,11.0,63,0.00,,---,0.00,VWS V14.01,2013-05-01 05:26:00,
2013-05-01 00:31:00,46.7,34.8,27.81,WNW,288,4.0,14.0,63,0.00,,---,0.00,VWS V14.01,2013-05-01 05:31:00,
2013-05-01 00:36:00,46.4,34.9,27.81,West,264,4.0,12.0,64,0.00,,---,0.00,VWS V14.01,2013-05-01 05:36:00,
2013-05-01 00:42:00,46.1,34.6,27.81,West,271,4.0,8.0,64,0.00,,---,0.00,VWS V14.01,2013-05-01 05:42:00,
2013-05-01 00:47:00,45.9,34.8,27.82,WNW,287,7.0,9.0,65,0.00,,---,0.00,VWS V14.01,2013-05-01 05:47:00,
2013-05-01 00:52:00,45.7,34.6,27.82,West,268,9.0,11.0,65,0.00,,---,0.00,VWS V14.01,2013-05-01 05:52:00,
2013-05-01 00:57:00,45.5,34.4,27.82,West,278,2.0,10.0,65,0.00,,---,0.00,VWS V14.01,2013-05-01 05:57:00,
2013-05-01 01:02:00,45.3,34.6,27.83,West,281,5.0,5.0,66,0.00,,---,0.00,VWS V14.01,2013-05-01 06:02:00,
2013-05-01 01:08:00,45.2,34.9,27.83,West,269,12.0,12.0,67,0.00,,---,0.00,VWS V14.01,2013-05-01 06:08:00,
2013-05-01 01:13:00,45.0,34.3,27.83,West,269,5.0,10.0,66,0.00,,---,0.00,VWS V14.01,2013-05-01 06:13:00,
2013-05-01 01:18:00,44.8,34.5,27.84,WSW,258,10.0,10.0,67,0.00,,---,0.00,VWS V14.01,2013-05-01 06:18:00,
2013-05-01 01:23:00,44.6,33.6,27.84,West,271,11.0,23.0,65,0.00,,---,0.00,VWS V14.01,2013-05-01 06:23:00,
2013-05-01 01:28:00,44.5,33.5,27.84,WSW,255,12.0,14.0,65,0.00,,---,0.00,VWS V14.01,2013-05-01 06:28:00,
2013-05-01 01:33:00,44.2,33.2,27.84,WNW,290,1.0,9.0,65,0.00,,---,0.00,VWS V14.01,2013-05-01 06:33:00,
2013-05-01 01:38:00,44.0,33.0,27.84,WSW,251,5.0,6.0,65,0.00,,---,0.00,VWS V14.01,2013-05-01 06:38:00,
2013-05-01 01:44:00,43.8,33.2,27.84,WSW,256,4.0,15.0,66,0.00,,---,0.00,VWS V14.01,2013-05-01 06:44:00,
2013-05-01 01:49:00,43.6,33.4,27.86,WSW,258,3.0,6.0,67,0.00,,---,0.00,VWS V14.01,2013-05-01 06:49:00,
2013-05-01 01:54:00,43.4,33.2,27.86,West,278,3.0,9.0,67,0.00,,---,0.00,VWS V14.01,2013-05-01 06:54:00,
2013-05-01 01:59:00,43.2,33.4,27.86,WSW,254,4.0,5.0,68,0.00,,---,0.00,VWS V14.01,2013-05-01 06:59:00,
2013-05-01 02:04:00,43.1,33.3,27.86,West,269,10.0,10.0,68,0.00,,---,0.00,VWS V14.01,2013-05-01 07:04:00,
2013-05-01 02:09:00,42.8,33.0,27.86,West,281,8.0,8.0,68,0.00,,---,0.00,VWS V14.01,2013-05-01 07:09:00,
2013-05-01 02:14:00,42.7,33.2,27.86,West,277,8.0,8.0,69,0.00,,---,0.00,VWS V14.01,2013-05-01 07:14:00,
2013-05-01 02:20:00,42.4,33.0,27.87,West,270,4.0,4.0,69,0.00,,---,0.00,VWS V14.01,2013-05-01 07:20:00,
2013-05-01 02:25:00,42.2,33.1,27.87,West,273,8.0,9.0,70,0.00,,---,0.00,VWS V14.01,2013-05-01 07:25:00,
2013-05-01 02:30:00,42.0,33.3,27.87,West,279,3.0,6.0,71,0.00,,---,0.00,VWS V14.01,2013-05-01 07:30:00,
2013-05-01 02:35:00,41.7,33.0,27.87,WNW,290,10.0,12.0,71,0.00,,---,0.00,VWS V14.01,2013-05-01 07:35:00,
2013-05-01 02:40:00,41.4,32.7,27.87,West,278,10.0,11.0,71,0.00,,---,0.00,VWS V14.01,2013-05-01 07:40:00,
2013-05-01 02:45:00,41.2,32.5,27.88,West,275,3.0,3.0,71,0.00,,---,0.00,VWS V14.01,2013-05-01 07:45:00,
2013-05-01 02:51:00,40.9,32.6,27.88,WNW,292,7.0,10.0,72,0.00,,---,0.00,VWS V14.01,2013-05-01 07:51:00,
2013-05-01 02:56:00,40.7,32.4,27.88,West,281,2.0,7.0,72,0.00,,---,0.00,VWS V14.01,2013-05-01 07:56:00,
2013-05-01 03:01:00,40.5,32.5,27.89,West,261,7.0,13.0,73,0.00,,---,0.00,VWS V14.01,2013-05-01 08:01:00,
2013-05-01 03:07:00,40.2,32.2,27.89,SW,236,5.0,11.0,73,0.00,,---,0.00,VWS V14.01,2013-05-01 08:07:00,
2013-05-01 03:12:00,40.1,32.5,27.89,WNW,285,2.0,6.0,74,0.00,,---,0.00,VWS V14.01,2013-05-01 08:12:00,
2013-05-01 03:17:00,39.8,32.2,27.90,West,270,6.0,11.0,74,0.00,,---,0.00,VWS V14.01,2013-05-01 08:17:00,
2013-05-01 03:22:00,39.7,32.4,27.90,WNW,289,10.0,14.0,75,0.00,,---,0.00,VWS V14.01,2013-05-01 08:22:00,
2013-05-01 03:27:00,39.5,32.2,27.90,West,263,13.0,13.0,75,0.00,,---,0.00,VWS V14.01,2013-05-01 08:27:00,
2013-05-01 03:32:00,39.3,32.0,27.91,West,278,5.0,7.0,75,0.00,,---,0.00,VWS V14.01,2013-05-01 08:32:00,
2013-05-01 03:37:00,39.1,31.9,27.91,WSW,242,4.0,8.0,75,0.00,,---,0.00,VWS V14.01,2013-05-01 08:37:00,
2013-05-01 03:43:00,38.9,32.0,27.91,WNW,283,6.0,12.0,76,0.00,,---,0.00,VWS V14.01,2013-05-01 08:43:00,
2013-05-01 03:48:00,38.8,31.9,27.93,West,267,4.0,6.0,76,0.00,,---,0.00,VWS V14.01,2013-05-01 08:48:00,
2013-05-01 03:53:00,38.6,31.7,27.93,WNW,284,3.0,8.0,76,0.00,,---,0.00,VWS V14.01,2013-05-01 08:53:00,
2013-05-01 03:58:00,38.4,31.5,27.93,WSW,257,4.0,8.0,76,0.00,,---,0.00,VWS V14.01,2013-05-01 08:58:00,
2013-05-01 04:03:00,38.3,31.4,27.93,NW,313,8.0,8.0,76,0.00,,---,0.00,VWS V14.01,2013-05-01 09:03:00,
2013-05-01 04:08:00,38.1,31.2,27.93,West,277,3.0,7.0,76,0.00,,---,0.00,VWS V14.01,2013-05-01 09:08:00,
2013-05-01 04:13:00,38.0,31.1,27.93,WSW,248,5.0,10.0,76,0.00,,---,0.00,VWS V14.01,2013-05-01 09:13:00,
2013-05-01 04:18:00,37.8,30.9,27.92,West,273,2.0,13.0,76,0.00,,---,0.00,VWS V14.01,2013-05-01 09:18:00,
2013-05-01 04:23:00,37.7,31.1,27.92,West,263,6.0,6.0,77,0.00,,---,0.00,VWS V14.01,2013-05-01 09:23:00,
2013-05-01 04:29:00,37.6,31.1,27.92,West,277,6.0,6.0,77,0.00,,---,0.00,VWS V14.01,2013-05-01 09:29:00,
2013-05-01 04:34:00,37.5,31.0,27.92,West,274,4.0,4.0,77,0.00,,---,0.00,VWS V14.01,2013-05-01 09:34:00,
2013-05-01 04:39:00,37.4,31.2,27.92,West,274,6.0,10.0,78,0.00,,---,0.00,VWS V14.01,2013-05-01 09:39:00,
2013-05-01 04:44:00,37.3,31.1,27.92,WSW,248,6.0,6.0,78,0.00,,---,0.00,VWS V14.01,2013-05-01 09:44:00,
2013-05-01 04:49:00,37.2,31.0,27.94,WNW,284,6.0,8.0,78,0.00,,---,0.00,VWS V14.01,2013-05-01 09:49:00,
2013-05-01 04:54:00,37.0,30.8,27.94,West,268,5.0,8.0,78,0.00,,---,0.00,VWS V14.01,2013-05-01 09:54:00,
2013-05-01 04:59:00,36.8,30.9,27.94,West,262,5.0,8.0,79,0.00,,---,0.00,VWS V14.01,2013-05-01 09:59:00,
2013-05-01 05:04:00,36.6,30.7,27.94,West,273,6.0,10.0,79,0.00,,---,0.00,VWS V14.01,2013-05-01 10:04:00,
2013-05-01 05:10:00,36.4,30.5,27.94,West,271,4.0,5.0,79,0.00,,---,0.00,VWS V14.01,2013-05-01 10:10:00,
2013-05-01 05:15:00,36.2,30.3,27.95,West,277,8.0,14.0,79,0.00,,---,0.00,VWS V14.01,2013-05-01 10:15:00,
2013-05-01 05:20:00,35.9,30.0,27.95,WSW,252,5.0,7.0,79,0.00,,---,0.00,VWS V14.01,2013-05-01 10:20:00,
2013-05-01 05:25:00,35.7,30.1,27.95,WSW,257,5.0,7.0,80,0.00,,---,0.00,VWS V14.01,2013-05-01 10:25:00,
2013-05-01 05:30:00,35.5,30.3,27.97,WSW,254,4.0,8.0,81,0.00,,---,0.00,VWS V14.01,2013-05-01 10:30:00,
2013-05-01 05:35:00,35.3,30.1,27.97,West,264,7.0,7.0,81,0.00,,---,0.00,VWS V14.01,2013-05-01 10:35:00,
2013-05-01 05:40:00,35.1,29.9,27.97,West,274,5.0,8.0,81,0.00,,---,0.00,VWS V14.01,2013-05-01 10:40:00,
2013-05-01 05:45:00,34.9,30.0,27.96,WNW,289,7.0,11.0,82,0.00,,---,0.00,VWS V14.01,2013-05-01 10:45:00,
2013-05-01 05:50:00,34.7,29.5,27.96,West,273,13.0,13.0,81,0.00,,---,0.00,VWS V14.01,2013-05-01 10:50:00,
2013-05-01 05:56:00,34.4,28.9,27.96,West,272,3.0,6.0,80,0.00,,---,0.00,VWS V14.01,2013-05-01 10:56:00,
2013-05-01 06:01:00,34.4,28.6,27.97,WSW,244,4.0,6.0,79,0.00,,---,0.00,VWS V14.01,2013-05-01 11:01:00,
2013-05-01 06:06:00,34.1,28.3,27.97,WSW,254,6.0,9.0,79,0.00,,---,0.00,VWS V14.01,2013-05-01 11:06:00,
2013-05-01 06:11:00,34.0,28.5,27.97,WSW,239,6.0,11.0,80,0.00,,---,0.00,VWS V14.01,2013-05-01 11:11:00,
2013-05-01 06:16:00,33.9,28.1,27.99,West,273,4.0,8.0,79,0.00,,---,0.00,VWS V14.01,2013-05-01 11:16:00,
2013-05-01 06:21:00,33.8,28.3,27.99,West,269,4.0,6.0,80,0.00,,---,0.00,VWS V14.01,2013-05-01 11:21:00,
2013-05-01 06:27:00,33.7,28.2,27.99,West,278,3.0,8.0,80,0.00,,---,0.00,VWS V14.01,2013-05-01 11:27:00,
2013-05-01 06:32:00,33.5,27.7,28.00,West,269,6.0,8.0,79,0.00,,---,0.00,VWS V14.01,2013-05-01 11:32:00,
2013-05-01 06:37:00,33.2,27.1,28.00,WSW,255,7.0,8.0,78,0.00,,---,0.00,VWS V14.01,2013-05-01 11:37:00,
2013-05-01 06:42:00,33.0,26.9,28.00,West,265,5.0,12.0,78,0.00,,---,0.00,VWS V14.01,2013-05-01 11:42:00,
2013-05-01 06:47:00,32.8,27.0,28.01,NW,304,8.0,8.0,79,0.00,,---,0.00,VWS V14.01,2013-05-01 11:47:00,
2013-05-01 06:53:00,32.6,26.8,28.01,West,280,6.0,7.0,79,0.00,,---,0.00,VWS V14.01,2013-05-01 11:53:00,
2013-05-01 06:58:00,32.5,26.4,28.01,West,270,5.0,10.0,78,0.00,,---,0.00,VWS V14.01,2013-05-01 11:58:00,
2013-05-01 07:03:00,32.4,26.6,28.01,NW,315,1.0,6.0,79,0.00,,---,0.00,VWS V14.01,2013-05-01 12:03:00,
2013-05-01 07:08:00,32.3,26.5,28.01,West,268,4.0,8.0,79,0.00,,---,0.00,VWS V14.01,2013-05-01 12:08:00,
2013-05-01 07:13:00,32.3,26.5,28.01,West,263,3.0,9.0,79,0.00,,---,0.00,VWS V14.01,2013-05-01 12:13:00,
2013-05-01 07:18:00,32.3,26.5,28.03,WSW,247,6.0,12.0,79,0.00,,---,0.00,VWS V14.01,2013-05-01 12:18:00,
2013-05-01 07:23:00,32.2,26.4,28.03,West,263,4.0,12.0,79,0.00,,---,0.00,VWS V14.01,2013-05-01 12:23:00,
2013-05-01 07:28:00,32.0,25.9,28.03,WNW,294,2.0,4.0,78,0.00,,---,0.00,VWS V14.01,2013-05-01 12:28:00,
2013-05-01 07:34:00,31.9,25.8,28.04,West,274,6.0,8.0,78,0.00,,---,0.00,VWS V14.01,2013-05-01 12:34:00,
2013-05-01 07:39:00,31.8,25.7,28.04,NW,324,7.0,7.0,78,0.00,,---,0.00,VWS V14.01,2013-05-01 12:39:00,
2013-05-01 07:44:00,31.7,25.6,28.04,West,275,3.0,10.0,78,0.00,,---,0.00,VWS V14.01,2013-05-01 12:44:00,
2013-05-01 07:49:00,31.7,25.6,28.04,NW,311,12.0,13.0,78,0.00,,---,0.00,VWS V14.01,2013-05-01 12:49:00,
2013-05-01 07:54:00,31.7,25.6,28.04,WNW,287,3.0,8.0,78,0.00,,---,0.00,VWS V14.01,2013-05-01 12:54:00,
2013-05-01 07:59:00,31.6,25.5,28.04,West,281,13.0,13.0,78,0.00,,---,0.00,VWS V14.01,2013-05-01 12:59:00,
2013-05-01 08:04:00,31.6,25.5,28.05,NNW,328,9.0,11.0,78,0.00,,---,0.00,VWS V14.01,2013-05-01 13:04:00,
2013-05-01 08:10:00,31.5,25.1,28.05,WNW,302,10.0,10.0,77,0.00,,---,0.00,VWS V14.01,2013-05-01 13:10:00,
2013-05-01 08:15:00,31.4,25.0,28.06,WNW,292,2.0,10.0,77,0.00,,---,0.00,VWS V14.01,2013-05-01 13:15:00,
2013-05-01 08:20:00,31.4,25.0,28.06,West,279,6.0,8.0,77,0.00,,---,0.00,VWS V14.01,2013-05-01 13:20:00,
2013-05-01 08:25:00,31.4,25.4,28.06,WNW,296,5.0,11.0,78,0.00,,---,0.00,VWS V14.01,2013-05-01 13:25:00,
2013-05-01 08:30:00,31.5,25.4,28.08,West,259,0.0,0.0,78,0.00,,---,0.00,VWS V14.01,2013-05-01 13:30:00,
2013-05-01 08:36:00,31.5,25.1,28.08,WSW,238,9.0,13.0,77,0.00,,---,0.00,VWS V14.01,2013-05-01 13:36:00,
2013-05-01 08:41:00,31.4,25.0,28.08,WSW,245,6.0,9.0,77,0.00,,---,0.00,VWS V14.01,2013-05-01 13:41:00,
2013-05-01 08:46:00,31.4,25.0,28.09,West,267,7.0,8.0,77,0.00,,---,0.00,VWS V14.01,2013-05-01 13:46:00,
2013-05-01 08:51:00,31.4,25.0,28.09,WNW,290,13.0,13.0,77,0.00,,---,0.00,VWS V14.01,2013-05-01 13:51:00,
2013-05-01 08:56:00,31.4,25.0,28.09,WNW,288,2.0,3.0,77,0.00,,---,0.00,VWS V14.01,2013-05-01 13:56:00,
2013-05-01 09:02:00,31.4,25.0,28.10,WNW,299,1.0,4.0,77,0.00,,---,0.00,VWS V14.01,2013-05-01 14:02:00,
2013-05-01 09:07:00,31.5,25.1,28.10,West,272,8.0,10.0,77,0.00,,---,0.00,VWS V14.01,2013-05-01 14:07:00,
2013-05-01 09:12:00,31.4,25.4,28.10,SW,227,6.0,7.0,78,0.00,,---,0.00,VWS V14.01,2013-05-01 14:12:00,
2013-05-01 09:17:00,31.4,25.4,28.11,West,259,5.0,7.0,78,0.00,,---,0.00,VWS V14.01,2013-05-01 14:17:00,
2013-05-01 09:22:00,31.6,25.5,28.11,NW,306,9.0,9.0,78,0.00,,---,0.00,VWS V14.01,2013-05-01 14:22:00,
2013-05-01 09:28:00,31.7,25.3,28.11,WSW,257,8.0,9.0,77,0.00,,---,0.00,VWS V14.01,2013-05-01 14:28:00,
2013-05-01 09:33:00,31.7,25.3,28.11,West,267,8.0,8.0,77,0.00,,---,0.00,VWS V14.01,2013-05-01 14:33:00,
2013-05-01 09:38:00,31.7,25.3,28.11,West,261,9.0,9.0,77,0.00,,---,0.00,VWS V14.01,2013-05-01 14:38:00,
2013-05-01 09:43:00,31.7,25.3,28.11,West,278,7.0,14.0,77,0.00,,---,0.00,VWS V14.01,2013-05-01 14:43:00,
2013-05-01 09:48:00,31.6,25.2,28.11,WNW,292,5.0,10.0,77,0.00,,---,0.00,VWS V14.01,2013-05-01 14:48:00,
2013-05-01 09:53:00,31.8,25.7,28.11,NNW,329,1.0,6.0,78,0.00,,---,0.00,VWS V14.01,2013-05-01 14:53:00,
2013-05-01 09:58:00,32.1,25.7,28.11,WNW,284,11.0,11.0,77,0.00,,---,0.00,VWS V14.01,2013-05-01 14:58:00,
2013-05-01 10:03:00,32.1,25.7,28.12,WNW,296,10.0,10.0,77,0.00,,---,0.00,VWS V14.01,2013-05-01 15:03:00,
2013-05-01 10:08:00,32.1,25.7,28.12,NW,315,8.0,12.0,77,0.00,,---,0.00,VWS V14.01,2013-05-01 15:08:00,
2013-05-01 10:13:00,31.9,25.5,28.12,West,280,8.0,9.0,77,0.00,,---,0.00,VWS V14.01,2013-05-01 15:13:00,
2013-05-01 10:19:00,32.0,25.6,28.12,West,264,8.0,8.0,77,0.00,,---,0.00,VWS V14.01,2013-05-01 15:19:00,
2013-05-01 10:24:00,32.2,26.1,28.12,WNW,293,0.0,2.0,78,0.00,,---,0.00,VWS V14.01,2013-05-01 15:24:00,
2013-05-01 10:29:00,32.5,26.1,28.12,West,272,5.0,7.0,77,0.00,,---,0.00,VWS V14.01,2013-05-01 15:29:00,
2013-05-01 10:34:00,32.4,26.0,28.12,West,273,6.0,9.0,77,0.00,,---,0.00,VWS V14.01,2013-05-01 15:34:00,
2013-05-01 10:39:00,32.1,25.7,28.12,NNW,329,1.0,8.0,77,0.00,,---,0.00,VWS V14.01,2013-05-01 15:39:00,
2013-05-01 10:44:00,32.2,26.1,28.12,NW,325,3.0,9.0,78,0.00,,---,0.00,VWS V14.01,2013-05-01 15:44:00,
2013-05-01 10:49:00,32.2,25.8,28.13,West,277,5.0,7.0,77,0.00,,---,0.00,VWS V14.01,2013-05-01 15:49:00,
2013-05-01 10:54:00,32.3,26.2,28.13,WSW,258,5.0,9.0,78,0.00,,---,0.00,VWS V14.01,2013-05-01 15:54:00,
2013-05-01 10:59:00,32.4,26.3,28.13,West,279,9.0,9.0,78,0.00,,---,0.00,VWS V14.01,2013-05-01 15:59:00,
2013-05-01 11:04:00,32.6,26.5,28.12,NNW,342,5.0,5.0,78,0.00,,---,0.00,VWS V14.01,2013-05-01 16:04:00,
2013-05-01 11:10:00,31.9,26.1,28.12,NNW,331,7.0,7.0,79,0.00,,---,0.00,VWS V14.01,2013-05-01 16:10:00,
2013-05-01 11:15:00,31.7,26.2,28.13,WNW,292,6.0,12.0,80,0.00,,---,0.00,VWS V14.01,2013-05-01 16:15:00,
2013-05-01 11:20:00,31.7,26.2,28.13,NW,306,6.0,10.0,80,0.00,,---,0.00,VWS V14.01,2013-05-01 16:20:00,
2013-05-01 11:25:00,31.5,26.0,28.13,NNW,333,5.0,8.0,80,0.00,,---,0.00,VWS V14.01,2013-05-01 16:25:00,
2013-05-01 11:30:00,31.9,26.1,28.14,WSW,249,6.0,10.0,79,0.00,,---,0.00,VWS V14.01,2013-05-01 16:30:00,
2013-05-01 11:35:00,32.2,26.1,28.14,NW,320,6.0,10.0,78,0.00,,---,0.00,VWS V14.01,2013-05-01 16:35:00,
2013-05-01 11:41:00,32.6,26.2,28.14,West,278,5.0,7.0,77,0.00,,---,0.00,VWS V14.01,2013-05-01 16:41:00,
2013-05-01 11:46:00,32.9,25.9,28.14,WNW,284,9.0,9.0,75,0.00,,---,0.00,VWS V14.01,2013-05-01 16:46:00,
2013-05-01 11:51:00,32.8,25.4,28.14,West,280,6.0,13.0,74,0.00,,---,0.00,VWS V14.01,2013-05-01 16:51:00,
2013-05-01 11:56:00,32.7,25.7,28.14,West,259,5.0,8.0,75,0.00,,---,0.00,VWS V14.01,2013-05-01 16:56:00,
2013-05-01 12:01:00,32.9,25.5,28.15,West,266,6.0,13.0,74,0.00,,---,0.00,VWS V14.01,2013-05-01 17:01:00,
2013-05-01 12:07:00,33.2,25.5,28.15,NNW,342,6.0,9.0,73,0.00,,---,0.00,VWS V14.01,2013-05-01 17:07:00,
2013-05-01 12:12:00,33.1,25.4,28.15,WNW,286,5.0,8.0,73,0.00,,---,0.00,VWS V14.01,2013-05-01 17:12:00,
2013-05-01 12:17:00,33.4,25.4,28.15,NW,307,7.0,7.0,72,0.00,,---,0.00,VWS V14.01,2013-05-01 17:17:00,
2013-05-01 12:22:00,33.5,25.1,28.15,WNW,302,5.0,9.0,71,0.00,,---,0.00,VWS V14.01,2013-05-01 17:22:00,
2013-05-01 12:27:00,33.4,25.4,28.15,WNW,302,5.0,8.0,72,0.00,,---,0.00,VWS V14.01,2013-05-01 17:27:00,
2013-05-01 12:32:00,33.8,25.1,28.15,NW,323,3.0,9.0,70,0.00,,---,0.00,VWS V14.01,2013-05-01 17:32:00,
2013-05-01 12:38:00,33.8,25.1,28.15,NW,324,4.0,6.0,70,0.00,,---,0.00,VWS V14.01,2013-05-01 17:38:00,
2013-05-01 12:43:00,34.3,25.5,28.15,WNW,287,2.0,2.0,70,0.00,,---,0.00,VWS V14.01,2013-05-01 17:43:00,
2013-05-01 12:48:00,34.4,25.3,28.17,WNW,294,5.0,8.0,69,0.00,,---,0.00,VWS V14.01,2013-05-01 17:48:00,
2013-05-01 12:53:00,34.4,25.3,28.17,NW,317,4.0,9.0,69,0.00,,---,0.00,VWS V14.01,2013-05-01 17:53:00,
2013-05-01 12:58:00,34.4,25.3,28.17,West,273,11.0,14.0,69,0.00,,---,0.00,VWS V14.01,2013-05-01 17:58:00,
2013-05-01 13:03:00,34.0,24.9,28.18,WNW,282,5.0,10.0,69,0.00,,---,0.00,VWS V14.01,2013-05-01 18:03:00,
2013-05-01 13:08:00,34.2,25.5,28.18,WSW,246,5.0,5.0,70,0.00,,---,0.00,VWS V14.01,2013-05-01 18:08:00,
2013-05-01 13:13:00,34.3,24.9,28.18,NNW,335,9.0,9.0,68,0.00,,---,0.00,VWS V14.01,2013-05-01 18:13:00,
2013-05-01 13:19:00,34.1,25.0,28.18,WNW,289,4.0,7.0,69,0.00,,---,0.00,VWS V14.01,2013-05-01 18:19:00,
2013-05-01 13:24:00,34.1,25.0,28.18,WNW,299,9.0,10.0,69,0.00,,---,0.00,VWS V14.01,2013-05-01 18:24:00,
2013-05-01 13:29:00,34.4,25.0,28.18,West,275,3.0,7.0,68,0.00,,---,0.00,VWS V14.01,2013-05-01 18:29:00,
2013-05-01 13:34:00,34.9,25.1,28.18,North,355,4.0,4.0,67,0.00,,---,0.00,VWS V14.01,2013-05-01 18:34:00,
2013-05-01 13:39:00,35.7,25.5,28.18,NW,311,8.0,8.0,66,0.00,,---,0.00,VWS V14.01,2013-05-01 18:39:00,
2013-05-01 13:45:00,35.8,25.6,28.18,NW,321,7.0,11.0,66,0.00,,---,0.00,VWS V14.01,2013-05-01 18:45:00,
2013-05-01 13:50:00,35.4,24.8,28.18,West,275,8.0,8.0,65,0.00,,---,0.00,VWS V14.01,2013-05-01 18:50:00,
2013-05-01 13:55:00,35.2,24.6,28.18,NNW,332,5.0,9.0,65,0.00,,---,0.00,VWS V14.01,2013-05-01 18:55:00,
2013-05-01 14:00:00,35.7,25.1,28.18,West,281,12.0,12.0,65,0.00,,---,0.00,VWS V14.01,2013-05-01 19:00:00,
2013-05-01 14:05:00,35.7,25.1,28.18,WNW,290,6.0,14.0,65,0.00,,---,0.00,VWS V14.01,2013-05-01 19:05:00,
2013-05-01 14:10:00,36.0,25.0,28.18,NW,323,4.0,5.0,64,0.00,,---,0.00,VWS V14.01,2013-05-01 19:10:00,
2013-05-01 14:15:00,36.3,25.3,28.20,NW,313,4.0,7.0,64,0.00,,---,0.00,VWS V14.01,2013-05-01 19:15:00,
2013-05-01 14:21:00,36.6,25.6,28.20,NW,309,6.0,6.0,64,0.00,,---,0.00,VWS V14.01,2013-05-01 19:21:00,
2013-05-01 14:26:00,37.2,26.2,28.20,North,360,8.0,9.0,64,0.00,,---,0.00,VWS V14.01,2013-05-01 19:26:00,
2013-05-01 14:31:00,37.9,25.7,28.20,WNW,298,9.0,11.0,61,0.00,,---,0.00,VWS V14.01,2013-05-01 19:31:00,
2013-05-01 14:36:00,37.5,26.1,28.20,NW,319,8.0,8.0,63,0.00,,---,0.00,VWS V14.01,2013-05-01 19:36:00,
2013-05-01 14:41:00,37.5,25.3,28.20,WNW,283,9.0,13.0,61,0.00,,---,0.00,VWS V14.01,2013-05-01 19:41:00,
2013-05-01 14:46:00,37.2,25.4,28.21,West,260,10.0,11.0,62,0.00,,---,0.00,VWS V14.01,2013-05-01 19:46:00,
2013-05-01 14:52:00,37.2,25.4,28.21,West,261,4.0,4.0,62,0.00,,---,0.00,VWS V14.01,2013-05-01 19:52:00,
2013-05-01 14:57:00,37.7,25.9,28.21,West,272,1.0,3.0,62,0.00,,---,0.00,VWS V14.01,2013-05-01 19:57:00,
2013-05-01 15:02:00,37.5,25.7,28.21,North,10,5.0,9.0,62,0.00,,---,0.00,VWS V14.01,2013-05-01 20:02:00,
2013-05-01 15:07:00,37.0,25.2,28.21,NNE,25,7.0,9.0,62,0.00,,---,0.00,VWS V14.01,2013-05-01 20:07:00,
2013-05-01 15:12:00,37.4,25.2,28.21,NNW,342,6.0,9.0,61,0.00,,---,0.00,VWS V14.01,2013-05-01 20:12:00,
2013-05-01 15:17:00,37.6,25.8,28.22,West,264,7.0,8.0,62,0.00,,---,0.00,VWS V14.01,2013-05-01 20:17:00,
2013-05-01 15:23:00,37.4,25.6,28.22,NNW,348,5.0,6.0,62,0.00,,---,0.00,VWS V14.01,2013-05-01 20:23:00,
2013-05-01 15:28:00,37.1,25.3,28.22,West,278,5.0,8.0,62,0.00,,---,0.00,VWS V14.01,2013-05-01 20:28:00,
2013-05-01 15:33:00,37.0,25.2,28.23,North,11,7.0,9.0,62,0.00,,---,0.00,VWS V14.01,2013-05-01 20:33:00,
2013-05-01 15:38:00,37.3,25.9,28.23,NW,320,2.0,4.0,63,0.00,,---,0.00,VWS V14.01,2013-05-01 20:38:00,
2013-05-01 15:43:00,37.2,24.6,28.23,NW,311,11.0,11.0,60,0.00,,---,0.00,VWS V14.01,2013-05-01 20:43:00,
2013-05-01 15:49:00,37.2,25.0,28.23,WNW,282,4.0,5.0,61,0.00,,---,0.00,VWS V14.01,2013-05-01 20:49:00,
2013-05-01 15:54:00,37.3,25.5,28.23,WNW,292,2.0,4.0,62,0.00,,---,0.00,VWS V14.01,2013-05-01 20:54:00,
2013-05-01 15:59:00,37.0,24.8,28.23,WNW,293,4.0,10.0,61,0.00,,---,0.00,VWS V14.01,2013-05-01 20:59:00,
2013-05-01 16:04:00,36.9,24.7,28.24,NW,317,6.0,8.0,61,0.00,,---,0.00,VWS V14.01,2013-05-01 21:04:00,
2013-05-01 16:09:00,36.7,24.9,28.24,NNW,338,8.0,10.0,62,0.00,,---,0.00,VWS V14.01,2013-05-01 21:09:00,
2013-05-01 16:14:00,36.4,25.0,28.24,North,355,5.0,10.0,63,0.00,,---,0.00,VWS V14.01,2013-05-01 21:14:00,
2013-05-01 16:19:00,36.1,25.1,28.24,NW,318,4.0,11.0,64,0.00,,---,0.00,VWS V14.01,2013-05-01 21:19:00,
2013-05-01 16:24:00,36.0,25.0,28.24,WNW,302,3.0,4.0,64,0.00,,---,0.00,VWS V14.01,2013-05-01 21:24:00,
2013-05-01 16:30:00,36.0,24.6,28.26,WNW,285,10.0,10.0,63,0.00,,---,0.00,VWS V14.01,2013-05-01 21:30:00,
2013-05-01 16:35:00,35.5,24.5,28.26,NW,306,4.0,10.0,64,0.00,,---,0.00,VWS V14.01,2013-05-01 21:35:00,
2013-05-01 16:40:00,35.4,24.5,28.26,NW,313,6.0,8.0,64,0.00,,---,0.00,VWS V14.01,2013-05-01 21:40:00,
2013-05-01 16:45:00,35.3,24.7,28.26,NNW,333,6.0,9.0,65,0.00,,---,0.00,VWS V14.01,2013-05-01 21:45:00,
2013-05-01 16:50:00,35.4,24.5,28.26,WNW,284,2.0,9.0,64,0.00,,---,0.00,VWS V14.01,2013-05-01 21:50:00,
2013-05-01 16:56:00,35.6,25.0,28.26,West,277,7.0,8.0,65,0.00,,---,0.00,VWS V14.01,2013-05-01 21:56:00,
2013-05-01 17:01:00,35.2,24.3,28.27,NNW,337,7.0,7.0,64,0.00,,---,0.00,VWS V14.01,2013-05-01 22:01:00,
2013-05-01 17:06:00,35.1,24.9,28.27,WNW,292,5.0,6.0,66,0.00,,---,0.00,VWS V14.01,2013-05-01 22:06:00,
2013-05-01 17:11:00,35.1,25.3,28.27,NW,304,6.0,8.0,67,0.00,,---,0.00,VWS V14.01,2013-05-01 22:11:00,
2013-05-01 17:16:00,34.4,24.6,28.29,NNW,331,5.0,14.0,67,0.00,,---,0.00,VWS V14.01,2013-05-01 22:16:00,
2013-05-01 17:21:00,34.2,24.8,28.29,WNW,285,6.0,11.0,68,0.00,,---,0.00,VWS V14.01,2013-05-01 22:21:00,
2013-05-01 17:27:00,34.0,24.9,28.29,WNW,282,8.0,8.0,69,0.00,,---,0.00,VWS V14.01,2013-05-01 22:27:00,
2013-05-01 17:32:00,33.9,24.8,28.29,WNW,302,4.0,7.0,69,0.00,,---,0.00,VWS V14.01,2013-05-01 22:32:00,
2013-05-01 17:37:00,33.9,24.8,28.29,NW,313,4.0,8.0,69,0.00,,---,0.00,VWS V14.01,2013-05-01 22:37:00,
2013-05-01 17:42:00,33.8,24.4,28.29,NNW,329,7.0,11.0,68,0.00,,---,0.00,VWS V14.01,2013-05-01 22:42:00,
2013-05-01 17:47:00,33.9,24.5,28.30,WNW,296,5.0,7.0,68,0.00,,---,0.00,VWS V14.01,2013-05-01 22:47:00,
2013-05-01 17:52:00,34.0,24.6,28.30,WNW,294,9.0,9.0,68,0.00,,---,0.00,VWS V14.01,2013-05-01 22:52:00,
2013-05-01 17:58:00,33.7,24.3,28.30,West,281,9.0,9.0,68,0.00,,---,0.00,VWS V14.01,2013-05-01 22:58:00,
2013-05-01 18:03:00,33.5,24.1,28.30,NNW,337,3.0,8.0,68,0.00,,---,0.00,VWS V14.01,2013-05-01 23:03:00,
2013-05-01 18:08:00,33.6,24.2,28.30,NW,323,3.0,6.0,68,0.00,,---,0.00,VWS V14.01,2013-05-01 23:08:00,
2013-05-01 18:14:00,33.3,23.9,28.30,NNW,341,6.0,9.0,68,0.00,,---,0.00,VWS V14.01,2013-05-01 23:14:00,
2013-05-01 18:19:00,33.2,23.8,28.30,North,11,7.0,7.0,68,0.00,,---,0.00,VWS V14.01,2013-05-01 23:19:00,
2013-05-01 18:24:00,33.2,24.1,28.30,WNW,297,3.0,10.0,69,0.00,,---,0.00,VWS V14.01,2013-05-01 23:24:00,
2013-05-01 18:29:00,33.0,24.0,28.30,NW,318,3.0,8.0,69,0.00,,---,0.00,VWS V14.01,2013-05-01 23:29:00,
2013-05-01 18:35:00,32.8,23.8,28.31,North,360,5.0,5.0,69,0.00,,---,0.00,VWS V14.01,2013-05-01 23:35:00,
2013-05-01 18:40:00,32.6,23.6,28.31,NNW,336,2.0,5.0,69,0.00,,---,0.00,VWS V14.01,2013-05-01 23:40:00,
2013-05-01 18:45:00,32.6,23.6,28.32,NW,317,4.0,5.0,69,0.00,,---,0.00,VWS V14.01,2013-05-01 23:45:00,
2013-05-01 18:50:00,32.5,23.5,28.32,NW,325,9.0,9.0,69,0.00,,---,0.00,VWS V14.01,2013-05-01 23:50:00,
2013-05-01 18:56:00,32.5,23.5,28.32,North,5,4.0,6.0,69,0.00,,---,0.00,VWS V14.01,2013-05-01 23:56:00,
2013-05-01 19:01:00,32.4,23.7,28.33,NW,317,3.0,6.0,70,0.00,,---,0.00,VWS V14.01,2013-05-02 00:01:00,
2013-05-01 19:06:00,32.4,23.7,28.33,NNE,28,2.0,6.0,70,0.00,,---,0.00,VWS V14.01,2013-05-02 00:06:00,
2013-05-01 19:11:00,32.3,23.3,28.33,NW,325,5.0,9.0,69,0.00,,---,0.00,VWS V14.01,2013-05-02 00:11:00,
2013-05-01 19:16:00,32.2,23.5,28.33,NW,325,5.0,6.0,70,0.00,,---,0.00,VWS V14.01,2013-05-02 00:16:00,
2013-05-01 19:22:00,32.1,23.4,28.33,NNW,348,1.0,3.0,70,0.00,,---,0.00,VWS V14.01,2013-05-02 00:22:00,
2013-05-01 19:27:00,32.0,23.3,28.33,NW,308,1.0,5.0,70,0.00,,---,0.00,VWS V14.01,2013-05-02 00:27:00,
2013-05-01 19:32:00,31.9,23.2,28.34,NW,315,4.0,8.0,70,0.00,,---,0.00,VWS V14.01,2013-05-02 00:32:00,
2013-05-01 19:37:00,31.8,23.5,28.34,North,355,2.0,7.0,71,0.00,,---,0.00,VWS V14.01,2013-05-02 00:37:00,
2013-05-01 19:42:00,31.7,23.4,28.34,NW,313,4.0,6.0,71,0.00,,---,0.00,VWS V14.01,2013-05-02 00:42:00,
2013-05-01 19:47:00,31.6,23.3,28.35,NNW,348,6.0,7.0,71,0.00,,---,0.00,VWS V14.01,2013-05-02 00:47:00,
2013-05-01 19:52:00,31.6,23.3,28.35,NNW,338,10.0,10.0,71,0.00,,---,0.00,VWS V14.01,2013-05-02 00:52:00,
2013-05-01 19:57:00,31.5,23.2,28.35,NNW,332,7.0,10.0,71,0.00,,---,0.00,VWS V14.01,2013-05-02 00:57:00,
2013-05-01 20:03:00,31.4,23.4,28.35,North,351,4.0,4.0,72,0.00,,---,0.00,VWS V14.01,2013-05-02 01:03:00,
2013-05-01 20:08:00,31.4,23.4,28.35,NNW,329,6.0,6.0,72,0.00,,---,0.00,VWS V14.01,2013-05-02 01:08:00,
2013-05-01 20:13:00,31.3,23.7,28.35,NNW,331,4.0,8.0,73,0.00,,---,0.00,VWS V14.01,2013-05-02 01:13:00,
2013-05-01 20:18:00,31.1,23.8,28.35,NNW,343,5.0,11.0,74,0.00,,---,0.00,VWS V14.01,2013-05-02 01:18:00,
2013-05-01 20:23:00,31.0,23.7,28.35,NW,323,6.0,8.0,74,0.00,,---,0.00,VWS V14.01,2013-05-02 01:23:00,
2013-05-01 20:28:00,30.8,23.8,28.35,NNE,13,6.0,9.0,75,0.00,,---,0.00,VWS V14.01,2013-05-02 01:28:00,
2013-05-01 20:33:00,30.7,23.7,28.36,NNW,329,3.0,6.0,75,0.00,,---,0.00,VWS V14.01,2013-05-02 01:33:00,
2013-05-01 20:38:00,30.6,23.6,28.36,NW,325,5.0,8.0,75,0.00,,---,0.00,VWS V14.01,2013-05-02 01:38:00,
2013-05-01 20:43:00,30.6,23.6,28.36,NNW,346,4.0,10.0,75,0.00,,---,0.00,VWS V14.01,2013-05-02 01:43:00,
2013-05-01 20:48:00,30.5,23.5,28.36,NW,311,4.0,8.0,75,0.00,,---,0.00,VWS V14.01,2013-05-02 01:48:00,
2013-05-01 20:54:00,30.4,23.4,28.36,NNW,347,5.0,9.0,75,0.00,,---,0.00,VWS V14.01,2013-05-02 01:54:00,
2013-05-01 20:59:00,30.3,23.3,28.36,NNW,339,5.0,5.0,75,0.00,,---,0.00,VWS V14.01,2013-05-02 01:59:00,
2013-05-01 21:04:00,30.3,23.3,28.36,NW,324,4.0,9.0,75,0.00,,---,0.00,VWS V14.01,2013-05-02 02:04:00,
2013-05-01 21:09:00,30.2,23.2,28.36,NNW,329,4.0,4.0,75,0.00,,---,0.00,VWS V14.01,2013-05-02 02:09:00,
2013-05-01 21:14:00,30.1,23.5,28.36,North,350,4.0,8.0,76,0.00,,---,0.00,VWS V14.01,2013-05-02 02:14:00,
2013-05-01 21:20:00,30.0,23.4,28.35,NNW,336,8.0,10.0,76,0.00,,---,0.00,VWS V14.01,2013-05-02 02:20:00,
2013-05-01 21:25:00,30.0,23.4,28.35,WNW,302,5.0,5.0,76,0.00,,---,0.00,VWS V14.01,2013-05-02 02:25:00,
2013-05-01 21:30:00,29.9,23.3,28.36,NNW,346,4.0,7.0,76,0.00,,---,0.00,VWS V14.01,2013-05-02 02:30:00,
2013-05-01 21:35:00,29.9,23.3,28.36,NW,311,5.0,8.0,76,0.00,,---,0.00,VWS V14.01,2013-05-02 02:35:00,
2013-05-01 21:41:00,29.9,23.3,28.36,NNW,344,4.0,4.0,76,0.00,,---,0.00,VWS V14.01,2013-05-02 02:41:00,
2013-05-01 21:46:00,29.9,23.3,28.37,NNW,331,5.0,8.0,76,0.00,,---,0.00,VWS V14.01,2013-05-02 02:46:00,
2013-05-01 21:51:00,29.9,23.3,28.37,NNW,343,6.0,6.0,76,0.00,,---,0.00,VWS V14.01,2013-05-02 02:51:00,
2013-05-01 21:56:00,29.8,23.2,28.37,North,360,9.0,10.0,76,0.00,,---,0.00,VWS V14.01,2013-05-02 02:56:00,
2013-05-01 22:01:00,29.8,23.2,28.37,North,355,4.0,4.0,76,0.00,,---,0.00,VWS V14.01,2013-05-02 03:01:00,
2013-05-01 22:06:00,29.7,23.1,28.37,NNW,341,5.0,8.0,76,0.00,,---,0.00,VWS V14.01,2013-05-02 03:06:00,
2013-05-01 22:12:00,29.7,22.8,28.37,NW,317,5.0,8.0,75,0.00,,---,0.00,VWS V14.01,2013-05-02 03:12:00,
2013-05-01 22:17:00,29.6,22.7,28.38,WNW,300,3.0,5.0,75,0.00,,---,0.00,VWS V14.01,2013-05-02 03:17:00,
2013-05-01 22:22:00,29.6,22.7,28.38,NNW,337,6.0,10.0,75,0.00,,---,0.00,VWS V14.01,2013-05-02 03:22:00,
2013-05-01 22:27:00,29.5,22.9,28.38,NW,313,9.0,9.0,76,0.00,,---,0.00,VWS V14.01,2013-05-02 03:27:00,
2013-05-01 22:32:00,29.4,22.8,28.37,NW,320,5.0,6.0,76,0.00,,---,0.00,VWS V14.01,2013-05-02 03:32:00,
2013-05-01 22:37:00,29.3,22.7,28.37,NW,306,3.0,4.0,76,0.00,,---,0.00,VWS V14.01,2013-05-02 03:37:00,
2013-05-01 22:42:00,29.2,22.3,28.37,North,5,3.0,9.0,75,0.00,,---,0.00,VWS V14.01,2013-05-02 03:42:00,
2013-05-01 22:47:00,29.2,22.6,28.38,NW,319,2.0,6.0,76,0.00,,---,0.00,VWS V14.01,2013-05-02 03:47:00,
2013-05-01 22:52:00,29.1,22.5,28.38,WNW,294,1.0,7.0,76,0.00,,---,0.00,VWS V14.01,2013-05-02 03:52:00,
2013-05-01 22:58:00,29.0,22.4,28.38,NW,315,4.0,8.0,76,0.00,,---,0.00,VWS V14.01,2013-05-02 03:58:00,
2013-05-01 23:01:00,29.0,22.7,28.38,NW,321,5.0,6.0,77,0.00,,---,0.00,VWS V14.01,2013-05-02 04:01:00,
2013-05-01 23:02:00,29.0,22.7,28.38,NNW,347,3.0,5.0,77,0.00,,---,0.00,VWS V14.01,2013-05-02 04:02:00,
2013-05-01 23:07:00,28.9,22.6,28.38,NW,325,5.0,5.0,77,0.00,,---,0.00,VWS V14.01,2013-05-02 04:07:00,
2013-05-01 23:12:00,28.9,22.6,28.38,North,355,8.0,9.0,77,0.00,,---,0.00,VWS V14.01,2013-05-02 04:12:00,
2013-05-01 23:17:00,28.8,22.5,28.38,NNW,327,2.0,6.0,77,0.00,,---,0.00,VWS V14.01,2013-05-02 04:17:00,
2013-05-01 23:22:00,28.8,22.5,28.38,NW,325,3.0,4.0,77,0.00,,---,0.00,VWS V14.01,2013-05-02 04:22:00,
2013-05-01 23:28:00,28.8,22.5,28.38,NW,306,7.0,9.0,77,0.00,,---,0.00,VWS V14.01,2013-05-02 04:28:00,
2013-05-01 23:33:00,28.8,22.5,28.38,North,9,2.0,7.0,77,0.00,,---,0.00,VWS V14.01,2013-05-02 04:33:00,
2013-05-01 23:38:00,28.7,22.4,28.38,NNW,331,4.0,10.0,77,0.00,,---,0.00,VWS V14.01,2013-05-02 04:38:00,
2013-05-01 23:43:00,28.7,22.4,28.38,North,5,3.0,4.0,77,0.00,,---,0.00,VWS V14.01,2013-05-02 04:43:00,
2013-05-01 23:48:00,28.7,22.4,28.39,NNW,329,2.0,7.0,77,0.00,,---,0.00,VWS V14.01,2013-05-02 04:48:00,
2013-05-01 23:53:00,28.7,22.1,28.39,NW,317,3.0,5.0,76,0.00,,---,0.00,VWS V14.01,2013-05-02 04:53:00,
2013-05-01 23:58:00,28.7,22.1,28.39,North,5,4.0,7.0,76,0.00,,---,0.00,VWS V14.01,2013-05-02 04:58:00,